createdAt,value
2019-04-14T00:02:16.940Z,20.10
2019-04-14T00:04:50.764Z,20.72
2019-04-14T00:07:23.130Z,20.70
2019-04-14T00:09:56.264Z,20.60
2019-04-14T00:12:29.407Z,19.65
2019-04-14T00:15:02.417Z,20.57
2019-04-14T00:17:34.850Z,19.90
2019-04-14T00:20:07.453Z,19.00
2019-04-14T00:22:40.519Z,20.90
2019-04-14T00:25:13.050Z,20.95
2019-04-14T00:27:45.913Z,20.23
2019-04-14T00:30:18.896Z,20.00
2019-04-14T00:32:55.275Z,21.80
2019-04-14T00:35:51.960Z,20.72
2019-04-14T00:38:28.061Z,20.90
2019-04-14T00:41:43.382Z,22.35
2019-04-14T00:44:27.632Z,20.35
2019-04-14T00:47:17.976Z,20.12
2019-04-14T00:49:50.890Z,20.27
2019-04-14T00:52:23.379Z,21.42
2019-04-14T00:54:56.428Z,21.87
2019-04-14T00:57:29.485Z,21.20
2019-04-14T01:00:01.813Z,21.25
2019-04-14T01:02:36.367Z,20.65
2019-04-14T01:05:08.915Z,22.47
2019-04-14T01:07:41.302Z,22.55
2019-04-14T01:10:14.987Z,22.15
2019-04-14T01:12:47.461Z,21.10
2019-04-14T01:15:20.113Z,21.75
2019-04-14T01:17:52.881Z,21.30
2019-04-14T01:20:25.340Z,20.92
2019-04-14T01:22:57.487Z,20.85
2019-04-14T01:25:30.306Z,20.92
2019-04-14T01:28:02.530Z,20.88
2019-04-14T01:30:35.119Z,20.23
2019-04-14T01:33:07.615Z,19.83
2019-04-14T01:35:39.997Z,19.62
2019-04-14T01:38:12.534Z,20.92
2019-04-14T01:40:44.555Z,19.53
2019-04-14T01:43:16.748Z,20.92
2019-04-14T01:45:59.594Z,21.37
2019-04-14T01:48:23.624Z,21.33
2019-04-14T01:51:11.726Z,22.73
2019-04-14T01:53:51.411Z,19.27
2019-04-14T01:56:42.716Z,22.60
2019-04-14T01:59:15.291Z,21.95
2019-04-14T02:01:48.125Z,22.37
2019-04-14T02:04:20.332Z,21.05
2019-04-14T02:06:53.012Z,21.60
2019-04-14T02:09:25.186Z,21.55
2019-04-14T02:11:57.481Z,22.13
2019-04-14T02:14:30.141Z,21.02
2019-04-14T02:17:04.943Z,21.82
2019-04-14T02:19:37.198Z,21.50
2019-04-14T02:22:09.548Z,22.90
2019-04-14T02:24:43.799Z,21.40
2019-04-14T02:27:18.880Z,23.87
2019-04-14T02:29:51.645Z,22.30
2019-04-14T02:32:49.366Z,23.02
2019-04-14T02:38:03.580Z,21.73
2019-04-14T02:40:39.309Z,21.50
2019-04-14T02:43:04.710Z,22.15
2019-04-14T02:48:31.783Z,20.65
2019-04-14T02:50:49.823Z,21.70
2019-04-14T02:55:57.702Z,22.07
2019-04-14T02:58:50.054Z,21.95
2019-04-14T03:03:39.197Z,21.35
2019-04-14T03:06:05.693Z,21.10
2019-04-14T03:11:21.044Z,22.32
2019-04-14T03:13:51.741Z,22.05
2019-04-14T03:16:31.358Z,23.30
2019-04-14T03:19:06.748Z,23.07
2019-04-14T03:22:13.126Z,23.38
2019-04-14T03:24:46.574Z,25.27
2019-04-14T03:30:45.190Z,25.70
2019-04-14T03:33:17.314Z,23.25
2019-04-14T03:35:51.948Z,26.27
2019-04-14T03:38:07.253Z,26.30
2019-04-14T03:40:37.658Z,23.42
2019-04-14T03:43:17.069Z,27.95
2019-04-14T03:50:45.499Z,27.42
2019-04-14T03:56:22.930Z,28.23
2019-04-14T03:58:55.373Z,26.82
2019-04-14T04:01:28.566Z,26.87
2019-04-14T04:04:00.689Z,28.20
2019-04-14T04:06:33.499Z,29.87
2019-04-14T04:09:08.357Z,28.90
2019-04-14T04:11:41.214Z,26.65
2019-04-14T04:14:13.970Z,28.47
2019-04-14T04:17:12.267Z,27.82
2019-04-14T04:19:57.796Z,26.67
2019-04-14T04:22:47.665Z,27.10
2019-04-14T04:25:31.156Z,26.87
2019-04-14T04:28:30.702Z,28.38
2019-04-14T04:31:10.999Z,28.20
2019-04-14T04:33:54.364Z,28.73
2019-04-14T04:36:48.765Z,27.70
2019-04-14T04:39:43.202Z,28.98
2019-04-14T04:42:15.472Z,28.17
2019-04-14T04:44:48.699Z,30.05
2019-04-14T04:47:23.033Z,28.67
2019-04-14T04:49:55.452Z,28.92
2019-04-14T04:52:28.088Z,29.05
2019-04-14T04:55:00.236Z,29.87
2019-04-14T04:57:32.811Z,28.55
2019-04-14T05:00:05.649Z,30.20
2019-04-14T05:02:37.654Z,29.77
2019-04-14T05:06:04.651Z,29.32
2019-04-14T05:08:39.151Z,28.62
2019-04-14T05:11:20.679Z,31.60
2019-04-14T05:13:53.344Z,29.63
2019-04-14T05:16:26.011Z,29.75
2019-04-14T05:19:10.628Z,29.15
2019-04-14T05:21:32.127Z,27.95
2019-04-14T05:24:04.953Z,29.98
2019-04-14T05:26:37.364Z,27.80
2019-04-14T05:29:09.992Z,30.88
2019-04-14T05:31:42.575Z,28.85
2019-04-14T05:34:15.062Z,29.40
2019-04-14T05:36:47.847Z,28.17
2019-04-14T05:39:20.022Z,30.52
2019-04-14T05:42:00.313Z,31.65
2019-04-14T05:44:25.435Z,30.95
2019-04-14T05:46:57.864Z,30.80
2019-04-14T05:49:39.100Z,30.30
2019-04-14T05:52:05.582Z,30.10
2019-04-14T05:54:38.277Z,30.27
2019-04-14T05:57:11.148Z,31.35
2019-04-14T05:59:44.058Z,32.83
2019-04-14T06:02:15.968Z,31.17
2019-04-14T06:04:48.238Z,29.57
2019-04-14T06:07:20.217Z,33.73
2019-04-14T06:09:52.110Z,31.20
2019-04-14T06:12:23.948Z,33.30
2019-04-14T06:14:55.593Z,30.80
2019-04-14T06:17:27.111Z,36.60
2019-04-14T06:19:58.675Z,38.30
2019-04-14T06:22:30.215Z,31.83
2019-04-14T06:25:02.098Z,33.40
2019-04-14T06:27:34.009Z,32.08
2019-04-14T06:30:35.276Z,32.42
2019-04-14T06:33:24.860Z,34.63
2019-04-14T06:36:18.397Z,34.50
2019-04-14T06:38:53.498Z,34.60
2019-04-14T06:41:25.094Z,34.07
2019-04-14T06:43:56.684Z,32.00
2019-04-14T06:46:28.265Z,35.10
2019-04-14T06:48:59.836Z,33.07
2019-04-14T06:51:31.464Z,32.17
2019-04-14T06:54:03.077Z,33.03
2019-04-14T06:56:34.732Z,32.43
2019-04-14T06:59:06.524Z,32.10
2019-04-14T07:01:39.069Z,31.20
2019-04-14T07:04:10.830Z,33.33
2019-04-14T07:06:42.522Z,31.43
2019-04-14T07:09:14.078Z,32.80
2019-04-14T07:11:45.706Z,34.30
2019-04-14T07:14:17.287Z,32.90
2019-04-14T07:16:51.314Z,31.13
2019-04-14T07:19:23.230Z,31.33
2019-04-14T07:21:54.857Z,30.97
2019-04-14T07:24:26.460Z,31.10
2019-04-14T07:26:58.084Z,30.80
2019-04-14T07:29:37.916Z,31.87
2019-04-14T07:32:27.351Z,32.80
2019-04-14T07:35:11.181Z,31.73
2019-04-14T07:37:51.996Z,31.10
2019-04-14T07:40:42.458Z,36.20
2019-04-14T07:43:37.526Z,31.67
2019-04-14T07:46:36.948Z,33.43
2019-04-14T07:49:37.712Z,32.80
2019-04-14T07:52:26.848Z,33.53
2019-04-14T07:55:12.685Z,33.47
2019-04-14T07:57:54.247Z,32.57
2019-04-14T08:00:32.658Z,35.07
2019-04-14T08:03:11.655Z,33.37
2019-04-14T08:05:43.276Z,32.00
2019-04-14T08:08:14.899Z,33.40
2019-04-14T08:10:46.560Z,33.10
2019-04-14T08:13:18.238Z,32.53
2019-04-14T08:15:49.876Z,32.00
2019-04-14T08:18:22.470Z,31.43
2019-04-14T08:20:54.101Z,31.97
2019-04-14T08:23:25.737Z,34.77
2019-04-14T08:25:57.392Z,34.80
2019-04-14T08:28:29.027Z,33.80
2019-04-14T08:31:00.632Z,34.27
2019-04-14T08:33:32.248Z,33.40
2019-04-14T08:36:03.888Z,33.27
2019-04-14T08:38:35.497Z,32.10
2019-04-14T08:41:07.110Z,33.93
2019-04-14T08:43:48.390Z,33.27
2019-04-14T08:46:41.490Z,34.70
2019-04-14T08:49:30.028Z,34.67
2019-04-14T08:52:08.564Z,33.60
2019-04-14T08:54:53.426Z,34.03
2019-04-14T08:57:30.508Z,33.47
2019-04-14T09:00:14.698Z,34.17
2019-04-14T09:03:05.216Z,33.20
2019-04-14T09:05:55.027Z,34.10
2019-04-14T09:08:51.632Z,33.90
2019-04-14T09:11:29.410Z,34.13
2019-04-14T09:14:02.615Z,34.07
2019-04-14T09:16:34.300Z,35.03
2019-04-14T09:19:11.127Z,34.83
2019-04-14T09:21:44.765Z,36.20
2019-04-14T09:24:16.784Z,34.40
2019-04-14T09:26:58.494Z,34.53
2019-04-14T09:29:32.751Z,31.53
2019-04-14T09:32:07.491Z,34.30
2019-04-14T09:34:40.081Z,35.50
2019-04-14T09:37:12.833Z,33.87
2019-04-14T09:39:47.606Z,34.37
2019-04-14T09:42:19.979Z,33.53
2019-04-14T09:44:51.876Z,33.77
2019-04-14T09:47:23.796Z,34.20
2019-04-14T09:49:55.622Z,35.63
2019-04-14T09:52:27.350Z,34.60
2019-04-14T09:54:59.116Z,35.80
2019-04-14T09:57:30.826Z,34.30
2019-04-14T10:00:03.573Z,33.40
2019-04-14T10:02:38.472Z,34.23
2019-04-14T10:05:11.307Z,37.13
2019-04-14T10:07:44.519Z,34.60
2019-04-14T10:10:16.983Z,35.80
2019-04-14T10:12:48.857Z,34.83
2019-04-14T10:15:20.466Z,33.53
2019-04-14T10:17:52.134Z,32.40
2019-04-14T10:20:23.731Z,33.70
2019-04-14T10:22:56.473Z,32.57
2019-04-14T10:25:28.115Z,33.70
2019-04-14T10:27:59.765Z,32.53
2019-04-14T10:30:31.392Z,32.70
2019-04-14T10:33:03.065Z,32.17
2019-04-14T10:35:34.675Z,33.80
2019-04-14T10:38:06.373Z,32.50
2019-04-14T10:40:39.186Z,35.50
2019-04-14T10:43:10.980Z,35.37
2019-04-14T10:45:42.552Z,35.40
2019-04-14T10:48:14.391Z,35.37
2019-04-14T10:50:46.037Z,37.10
2019-04-14T10:53:17.706Z,36.60
2019-04-14T10:55:49.300Z,35.13
2019-04-14T10:58:21.031Z,35.00
2019-04-14T11:00:52.838Z,33.50
2019-04-14T11:03:24.460Z,32.13
2019-04-14T11:06:13.324Z,33.67
2019-04-14T11:08:44.986Z,33.00
2019-04-14T11:11:16.633Z,32.20
2019-04-14T11:13:48.255Z,32.83
2019-04-14T11:16:21.086Z,31.73
2019-04-14T11:18:52.796Z,32.43
2019-04-14T11:21:24.426Z,32.37
2019-04-14T11:23:56.049Z,32.40
2019-04-14T11:26:27.658Z,32.60
2019-04-14T11:28:59.290Z,32.70
2019-04-14T11:31:48.643Z,32.00
2019-04-14T11:34:21.601Z,33.83
2019-04-14T11:37:11.172Z,32.10
2019-04-14T11:39:43.626Z,33.33
2019-04-14T11:42:17.119Z,34.60
2019-04-14T11:44:49.919Z,33.70
2019-04-14T11:47:21.648Z,35.77
2019-04-14T11:49:53.564Z,33.80
2019-04-14T11:52:25.287Z,32.70
2019-04-14T11:54:57.013Z,32.03
2019-04-14T11:57:28.636Z,32.77
2019-04-14T12:00:07.954Z,31.10
2019-04-14T12:02:54.699Z,31.00
2019-04-14T12:05:45.218Z,28.60
2019-04-14T12:08:29.924Z,30.27
2019-04-14T12:11:01.593Z,27.87
2019-04-14T12:13:33.225Z,25.50
2019-04-14T12:16:05.092Z,24.43
2019-04-14T12:18:36.739Z,24.77
2019-04-14T12:21:10.044Z,25.43
2019-04-14T12:23:41.677Z,26.20
2019-04-14T12:26:13.392Z,24.93
2019-04-14T12:28:45.141Z,22.93
2019-04-14T12:31:17.466Z,21.70
2019-04-14T12:33:49.177Z,22.93
2019-04-14T12:36:21.019Z,21.00
2019-04-14T12:38:54.463Z,21.10
2019-04-14T12:41:33.218Z,19.80
2019-04-14T12:44:27.656Z,20.90
2019-04-14T12:47:16.750Z,21.20
2019-04-14T12:49:49.718Z,19.00
2019-04-14T12:52:23.530Z,20.97
2019-04-14T12:54:55.493Z,18.57
2019-04-14T12:57:33.871Z,19.20
2019-04-14T13:00:09.331Z,20.00
2019-04-14T13:02:44.266Z,19.93
2019-04-14T13:05:16.090Z,20.13
2019-04-14T13:07:47.749Z,20.30
2019-04-14T13:10:19.505Z,20.40
2019-04-14T13:12:51.084Z,19.80
2019-04-14T13:15:22.811Z,20.20
2019-04-14T13:17:54.452Z,20.37
2019-04-14T13:20:26.114Z,21.90
2019-04-14T13:22:58.971Z,22.07
2019-04-14T13:25:30.615Z,21.73
2019-04-14T13:28:02.218Z,21.80
2019-04-14T13:30:36.693Z,21.63
2019-04-14T13:33:08.525Z,20.37
2019-04-14T13:35:40.183Z,22.70
2019-04-14T13:38:11.941Z,21.03
2019-04-14T13:40:43.842Z,23.00
2019-04-14T13:43:16.684Z,22.83
2019-04-14T13:45:49.902Z,21.00
2019-04-14T13:48:21.553Z,21.43
2019-04-14T13:50:53.185Z,20.97
2019-04-14T13:53:25.812Z,20.10
2019-04-14T13:55:57.521Z,18.80
2019-04-14T13:58:30.349Z,20.97
2019-04-14T14:01:02.245Z,21.68
2019-04-14T14:03:33.950Z,19.87
2019-04-14T14:06:05.616Z,19.50
2019-04-14T14:08:37.276Z,20.00
2019-04-14T14:11:27.771Z,20.57
2019-04-14T14:14:05.256Z,19.57
2019-04-14T14:16:58.568Z,21.90
2019-04-14T14:19:38.312Z,20.73
2019-04-14T14:22:18.933Z,21.23
2019-04-14T14:24:59.324Z,19.57
2019-04-14T14:27:31.015Z,20.93
2019-04-14T14:30:02.625Z,21.17
2019-04-14T14:32:37.573Z,20.40
2019-04-14T14:35:09.514Z,19.63
2019-04-14T14:37:42.973Z,21.23
2019-04-14T14:40:15.423Z,19.60
2019-04-14T14:42:47.017Z,20.03
2019-04-14T14:45:43.571Z,18.10
2019-04-14T14:48:27.279Z,16.87
2019-04-14T14:51:06.163Z,17.50
2019-04-14T14:53:37.922Z,16.77
2019-04-14T14:56:09.543Z,16.80
2019-04-14T14:58:41.187Z,16.47
2019-04-14T15:01:13.155Z,16.73
2019-04-14T15:03:44.799Z,16.73
2019-04-14T15:06:16.476Z,16.60
2019-04-14T15:08:48.142Z,16.07
2019-04-14T15:11:19.875Z,16.03
2019-04-14T15:13:51.505Z,16.13
2019-04-14T15:16:23.221Z,15.33
2019-04-14T15:18:54.892Z,15.97
2019-04-14T15:21:26.537Z,16.17
2019-04-14T15:23:58.305Z,15.60
2019-04-14T15:26:30.251Z,16.32
2019-04-14T15:29:01.884Z,15.67
2019-04-14T15:31:33.525Z,16.23
2019-04-14T15:34:05.178Z,14.93
2019-04-14T15:36:37.135Z,16.20
2019-04-14T15:39:09.891Z,15.90
2019-04-14T15:41:41.997Z,14.47
2019-04-14T15:44:13.661Z,15.10
2019-04-14T15:46:45.324Z,14.37
2019-04-14T15:49:16.970Z,14.97
2019-04-14T15:51:48.695Z,14.67
2019-04-14T15:54:20.349Z,13.80
2019-04-14T15:57:06.413Z,15.57
2019-04-14T15:59:56.253Z,15.83
2019-04-14T16:03:02.248Z,15.57
2019-04-14T16:05:52.878Z,15.20
2019-04-14T16:08:29.812Z,15.60
2019-04-14T16:11:20.275Z,15.07
2019-04-14T16:14:08.422Z,17.00
2019-04-14T16:16:59.234Z,17.12
2019-04-14T16:19:40.225Z,16.90
2019-04-14T16:22:11.831Z,16.23
2019-04-14T16:24:43.576Z,15.50
2019-04-14T16:27:29.387Z,15.50
2019-04-14T16:30:25.654Z,16.10
2019-04-14T16:33:17.224Z,15.27
2019-04-14T16:35:49.104Z,15.07
2019-04-14T16:38:20.724Z,15.63
2019-04-14T16:40:52.444Z,16.17
2019-04-14T16:43:26.229Z,15.80
2019-04-14T16:45:57.636Z,16.80
2019-04-14T16:48:29.208Z,15.63
2019-04-14T16:51:00.980Z,16.40
2019-04-14T16:53:35.924Z,16.90
2019-04-14T16:56:19.272Z,16.53
2019-04-14T16:58:53.529Z,17.37
2019-04-14T17:01:39.961Z,17.40
2019-04-14T17:04:12.273Z,17.77
2019-04-14T17:06:43.912Z,17.13
2019-04-14T17:09:15.515Z,17.20
2019-04-14T17:11:48.282Z,17.13
2019-04-14T17:14:29.895Z,17.90
2019-04-14T17:17:12.635Z,16.13
2019-04-14T17:20:03.085Z,15.90
2019-04-14T17:23:02.941Z,18.20
2019-04-14T17:25:39.200Z,17.40
2019-04-14T17:28:32.791Z,17.47
2019-04-14T17:31:19.879Z,17.23
2019-04-14T17:34:08.316Z,17.93
2019-04-14T17:36:58.000Z,17.10
2019-04-14T17:39:35.333Z,16.93
2019-04-14T17:42:21.096Z,17.40
2019-04-14T17:45:14.643Z,17.03
2019-04-14T17:47:56.166Z,17.83
2019-04-14T17:50:47.835Z,16.77
2019-04-14T17:53:26.290Z,16.80
2019-04-14T17:56:32.192Z,17.30
2019-04-14T17:59:34.538Z,17.13
2019-04-14T18:02:23.321Z,18.97
2019-04-14T18:05:05.621Z,18.17
2019-04-14T18:07:57.731Z,16.93
2019-04-14T18:10:41.034Z,16.07
2019-04-14T18:13:28.132Z,15.90
2019-04-14T18:16:18.599Z,16.43
2019-04-14T18:19:08.599Z,15.33
2019-04-14T18:21:40.224Z,17.40
2019-04-14T18:24:11.862Z,14.87
2019-04-14T18:26:43.524Z,16.03
2019-04-14T18:29:33.574Z,15.70
2019-04-14T18:32:27.127Z,14.73
2019-04-14T18:35:29.880Z,15.00
2019-04-14T18:38:23.426Z,16.30
2019-04-14T18:41:10.184Z,15.13
2019-04-14T18:43:58.147Z,14.70
2019-04-14T18:46:40.535Z,14.80
2019-04-14T18:49:36.842Z,15.30
2019-04-14T18:52:17.196Z,14.47
2019-04-14T18:55:01.690Z,14.70
2019-04-14T18:57:50.720Z,14.90
2019-04-14T19:00:43.359Z,14.60
2019-04-14T19:03:15.422Z,19.50
2019-04-14T19:05:47.406Z,14.80
2019-04-14T19:08:19.476Z,15.83
2019-04-14T19:11:17.643Z,20.50
2019-04-14T19:13:50.376Z,14.30
2019-04-14T19:16:38.633Z,14.33
2019-04-14T19:19:01.887Z,15.10
2019-04-14T19:21:33.501Z,13.53
2019-04-14T19:24:05.192Z,14.60
2019-04-14T19:26:36.990Z,14.43
2019-04-14T19:29:11.207Z,14.20
2019-04-14T19:31:43.033Z,14.53
2019-04-14T19:34:14.632Z,13.33
2019-04-14T19:36:46.294Z,13.53
2019-04-14T19:39:18.067Z,19.73
2019-04-14T19:41:49.717Z,15.80
2019-04-14T19:44:21.500Z,14.17
2019-04-14T19:46:53.187Z,13.90
2019-04-14T19:49:26.329Z,16.20
2019-04-14T19:51:59.188Z,13.73
2019-04-14T19:54:30.902Z,17.97
2019-04-14T19:57:02.533Z,14.97
2019-04-14T19:59:34.201Z,13.87
2019-04-14T20:02:05.812Z,23.30
2019-04-14T20:04:39.144Z,14.50
2019-04-14T20:07:10.793Z,13.90
2019-04-14T20:09:44.207Z,13.57
2019-04-14T20:12:16.488Z,14.43
2019-04-14T20:14:48.199Z,11.63
2019-04-14T20:17:37.664Z,12.37
2019-04-14T20:20:27.548Z,11.63
2019-04-14T20:23:22.125Z,12.50
2019-04-14T20:26:14.108Z,12.70
2019-04-14T20:28:52.770Z,12.77
2019-04-14T20:31:39.257Z,12.93
2019-04-14T20:34:11.942Z,14.27
2019-04-14T20:36:43.695Z,11.10
2019-04-14T20:39:15.815Z,12.20
2019-04-14T20:41:47.408Z,12.70
2019-04-14T20:44:19.332Z,11.40
2019-04-14T20:46:50.983Z,12.50
2019-04-14T20:49:22.578Z,11.33
2019-04-14T20:51:54.335Z,12.33
2019-04-14T20:54:25.964Z,11.73
2019-04-14T20:56:57.596Z,11.20
2019-04-14T20:59:29.219Z,10.83
2019-04-14T21:02:14.707Z,12.10
2019-04-14T21:04:57.085Z,11.97
2019-04-14T21:07:56.351Z,11.40
2019-04-14T21:10:35.899Z,11.60
2019-04-14T21:13:44.740Z,11.60
2019-04-14T21:16:35.210Z,11.17
2019-04-14T21:19:23.368Z,11.17
2019-04-14T21:22:09.615Z,11.20
2019-04-14T21:25:02.920Z,11.50
2019-04-14T21:27:56.444Z,11.63
2019-04-14T21:30:49.118Z,11.97
2019-04-14T21:33:39.575Z,12.43
2019-04-14T21:36:35.827Z,11.70
2019-04-14T21:39:17.713Z,11.00
2019-04-14T21:41:52.331Z,12.03
2019-04-14T21:44:23.930Z,11.50
2019-04-14T21:46:55.624Z,11.83
2019-04-14T21:49:27.213Z,12.20
2019-04-14T21:52:11.844Z,12.43
2019-04-14T21:54:44.388Z,12.27
2019-04-14T21:57:40.715Z,13.50
2019-04-14T22:00:30.689Z,12.43
2019-04-14T22:03:21.765Z,12.73
2019-04-14T22:06:01.568Z,12.60
2019-04-14T22:08:36.758Z,11.90
2019-04-14T22:11:14.045Z,11.77
2019-04-14T22:13:45.639Z,11.90
2019-04-14T22:16:17.217Z,12.50
2019-04-14T22:18:49.070Z,12.73
2019-04-14T22:21:20.672Z,12.57
2019-04-14T22:24:01.336Z,12.70
2019-04-14T22:26:26.556Z,12.97
2019-04-14T22:28:58.263Z,13.37
2019-04-14T22:31:29.902Z,13.83
2019-04-14T22:34:01.467Z,12.43
2019-04-14T22:36:34.169Z,11.93
2019-04-14T22:39:08.541Z,12.43
2019-04-14T22:41:41.514Z,11.63
2019-04-14T22:44:13.106Z,12.73
2019-04-14T22:46:44.714Z,14.00
2019-04-14T22:49:16.357Z,12.53
2019-04-14T22:51:47.947Z,11.23
2019-04-14T22:54:21.387Z,11.10
2019-04-14T22:56:53.253Z,12.37
2019-04-14T22:59:24.850Z,13.03
2019-04-14T23:02:04.044Z,12.33
2019-04-14T23:04:53.078Z,12.33
2019-04-14T23:07:36.264Z,12.33
2019-04-14T23:10:29.575Z,11.83
2019-04-14T23:13:08.874Z,11.43
2019-04-14T23:16:05.206Z,13.33
2019-04-14T23:18:52.025Z,12.20
2019-04-14T23:21:42.452Z,12.17
2019-04-14T23:24:19.407Z,12.60
2019-04-14T23:26:52.827Z,12.80
2019-04-14T23:29:24.412Z,13.80
2019-04-14T23:31:56.340Z,14.18
2019-04-14T23:34:28.240Z,13.75
2019-04-14T23:36:59.829Z,14.27
2019-04-14T23:39:31.428Z,15.53
2019-04-14T23:42:03.064Z,14.20
2019-04-14T23:44:34.652Z,14.27
2019-04-14T23:47:06.291Z,13.87
2019-04-14T23:49:37.958Z,14.27
2019-04-14T23:52:09.930Z,13.75
2019-04-14T23:54:41.503Z,13.70
2019-04-14T23:57:13.451Z,14.98
2019-04-14T23:59:45.050Z,11.87
